< < Back
Terminal Aerodrome Forecast


Current Version              Previous Versions:   1  2  3  4  5  6  7  8  9  

Terminal Aerodrome Forecast

066
FTUS42 KMLB 201700
TAFDAB
TAF
KDAB 201731Z 2018/2118 35011KT P6SM OVC018
     FM202000 02015KT P6SM BKN020 OVC030
     FM210600 36009KT P6SM SCT012 BKN035
      TEMPO 2110/2114 BKN012
     FM211400 35013KT P6SM SCT015 SCT035=



Latest METAR

580
SAUS80 KWBC 202300
MTRDAB
METAR KDAB 202253Z 01012KT 10SM BKN016 OVC024 17/13 A3007 RMK AO2 SLP182
T01720133


USA.gov is the U.S. government's official web portal to all federal, state and local government web resources and services.